Time;durP1;ratioP1;P1;durP2;ratioP2;P2;SDS_P1;SDS_P2;PMS_P1;PMS_P2;Temp;Humidity;BMP_temperature;BMP_pressure;BME280_temperature;BME280_humidity;BME280_pressure;Samples;Min_cycle;Max_cycle;Signal;HPM_P1;HPM_P2
2023/01/31 00:01:29;;;;;;;80.03;7.13;;;5.90;99.90;;;;;;5079825;28;20207;-84
2023/01/31 00:04:15;;;;;;;72.80;5.97;;;5.90;99.90;;;;;;5080204;28;20414;-84
2023/01/31 00:06:43;;;;;;;78.57;6.00;;;5.90;99.90;;;;;;5079556;28;20180;-84
2023/01/31 00:09:11;;;;;;;70.65;5.78;;;5.90;99.90;;;;;;5061872;28;20182;-84
2023/01/31 00:11:37;;;;;;;82.72;7.72;;;5.90;99.90;;;;;;5061664;28;20188;-84
2023/01/31 00:14:05;;;;;;;78.25;6.50;;;5.90;99.90;;;;;;5079455;28;20180;-84
2023/01/31 00:16:34;;;;;;;79.40;6.65;;;6.00;99.90;;;;;;5061798;28;20175;-84
2023/01/31 00:18:59;;;;;;;86.03;7.63;;;5.90;99.90;;;;;;5061514;28;20168;-84
2023/01/31 00:21:28;;;;;;;75.67;6.57;;;5.90;99.90;;;;;;5061095;28;20256;-84
2023/01/31 00:23:55;;;;;;;75.78;6.43;;;5.90;99.90;;;;;;5079401;28;20398;-84
2023/01/31 00:26:28;;;;;;;81.85;7.45;;;5.90;99.90;;;;;;5079141;28;20302;-84
2023/01/31 00:28:55;;;;;;;73.28;5.80;;;5.90;99.90;;;;;;5061036;28;20305;-84
2023/01/31 00:31:25;;;;;;;82.07;6.05;;;5.90;99.90;;;;;;5079282;28;20184;-84
2023/01/31 00:33:52;;;;;;;75.57;7.18;;;5.90;99.90;;;;;;5078903;28;20203;-84
2023/01/31 00:36:22;;;;;;;80.50;6.40;;;5.90;99.90;;;;;;5079297;28;20565;-84
2023/01/31 00:38:50;;;;;;;79.72;6.45;;;5.90;99.90;;;;;;5079956;28;20255;-84
2023/01/31 00:41:17;;;;;;;67.13;5.70;;;5.80;99.90;;;;;;5060884;28;20662;-83
2023/01/31 00:43:43;;;;;;;78.28;6.35;;;5.90;99.90;;;;;;5079066;28;20164;-84
2023/01/31 00:46:08;;;;;;;78.00;6.87;;;5.80;99.90;;;;;;5061346;28;20167;-84
2023/01/31 00:48:37;;;;;;;72.37;6.30;;;5.80;99.90;;;;;;5079360;28;20170;-84
2023/01/31 00:51:05;;;;;;;77.40;6.07;;;5.90;99.90;;;;;;5060775;28;20195;-84
2023/01/31 00:53:31;;;;;;;71.97;5.18;;;5.80;99.90;;;;;;5060967;28;20195;-84
2023/01/31 00:56:32;;;;;;;76.40;5.40;;;5.90;99.90;;;;;;5079434;28;20626;-84
2023/01/31 00:59:03;;;;;;;78.07;6.03;;;5.80;99.90;;;;;;5047353;28;20395;-84
2023/01/31 01:01:31;;;;;;;71.85;5.38;;;5.80;99.90;;;;;;5060880;28;20195;-84
2023/01/31 01:04:00;;;;;;;71.30;6.70;;;5.70;99.90;;;;;;5078722;28;20164;-84
2023/01/31 01:06:30;;;;;;;82.65;6.88;;;5.60;99.90;;;;;;5078640;28;20168;-84
2023/01/31 01:08:58;;;;;;;72.97;5.75;;;5.60;99.90;;;;;;5061765;28;20236;-84
2023/01/31 01:11:29;;;;;;;77.10;6.50;;;5.60;99.90;;;;;;5078827;28;20180;-84
2023/01/31 01:13:56;;;;;;;75.85;5.93;;;5.60;99.90;;;;;;5078288;28;20196;-84
2023/01/31 01:16:32;;;;;;;82.85;6.50;;;5.50;99.90;;;;;;5078690;28;20192;-83
2023/01/31 01:18:59;;;;;;;75.93;6.00;;;5.50;99.90;;;;;;5078781;28;20144;-84
2023/01/31 01:21:30;;;;;;;73.57;6.20;;;5.40;99.90;;;;;;5078640;28;20176;-84
2023/01/31 01:23:57;;;;;;;82.38;6.75;;;5.30;99.90;;;;;;5060436;28;20254;-84
2023/01/31 01:26:25;;;;;;;78.72;7.40;;;5.30;99.90;;;;;;5060998;28;20262;-84
2023/01/31 01:28:52;;;;;;;74.20;6.57;;;5.40;99.90;;;;;;5060262;28;20235;-84
2023/01/31 01:31:19;;;;;;;73.55;6.70;;;5.40;99.90;;;;;;5078628;28;20187;-84
2023/01/31 01:33:46;;;;;;;70.97;6.28;;;5.40;99.90;;;;;;5078097;28;20201;-84
2023/01/31 01:36:16;;;;;;;76.47;7.28;;;5.40;99.90;;;;;;5060772;28;20250;-84
2023/01/31 01:38:42;;;;;;;83.35;7.70;;;5.40;99.90;;;;;;5078471;28;20247;-84
2023/01/31 01:41:09;;;;;;;77.07;7.00;;;5.40;99.90;;;;;;5077568;28;20186;-84
2023/01/31 01:43:43;;;;;;;84.50;6.90;;;5.40;99.90;;;;;;5078663;28;20164;-84
2023/01/31 01:46:14;;;;;;;76.65;6.15;;;5.40;99.90;;;;;;5060258;28;20249;-84
2023/01/31 01:48:42;;;;;;;75.70;6.72;;;5.40;99.90;;;;;;5060663;28;20172;-84
2023/01/31 01:51:09;;;;;;;71.72;6.68;;;5.30;99.90;;;;;;5078387;28;20550;-84
2023/01/31 01:53:39;;;;;;;81.25;6.50;;;5.40;99.90;;;;;;5060764;28;20612;-84
2023/01/31 01:56:12;;;;;;;72.47;6.00;;;5.40;99.90;;;;;;5078450;28;20164;-84
2023/01/31 01:58:45;;;;;;;82.57;7.50;;;5.40;99.90;;;;;;5080660;28;20152;-84
2023/01/31 02:01:12;;;;;;;78.13;7.30;;;5.40;99.90;;;;;;5082219;28;20187;-84
2023/01/31 02:03:40;;;;;;;78.93;6.80;;;5.30;99.90;;;;;;5081746;28;20231;-84
2023/01/31 02:06:06;;;;;;;72.57;5.65;;;5.30;99.90;;;;;;5064439;28;20168;-84
2023/01/31 02:08:35;;;;;;;74.72;5.95;;;5.30;99.90;;;;;;5065140;28;20645;-84
2023/01/31 02:11:14;;;;;;;71.55;6.35;;;5.30;99.90;;;;;;5082269;28;20214;-84
2023/01/31 02:13:41;;;;;;;82.20;6.15;;;5.30;99.90;;;;;;5082220;28;20184;-84
2023/01/31 02:16:06;;;;;;;79.22;6.55;;;5.30;99.90;;;;;;5064385;28;20623;-84
2023/01/31 02:18:34;;;;;;;77.30;6.23;;;5.30;99.90;;;;;;5081849;28;20168;-84
2023/01/31 02:21:36;;;;;;;76.93;5.72;;;5.30;99.90;;;;;;5081572;28;20191;-84
2023/01/31 02:24:26;;;;;;;73.40;5.65;;;5.20;99.90;;;;;;5064134;28;20175;-84
2023/01/31 02:27:13;;;;;;;73.30;6.10;;;5.20;99.90;;;;;;5081980;28;20191;-84
2023/01/31 02:30:07;;;;;;;73.32;6.13;;;5.20;99.90;;;;;;5063989;28;20318;-84
2023/01/31 02:32:33;;;;;;;72.78;5.90;;;5.20;99.90;;;;;;5081697;28;20176;-84
2023/01/31 02:35:13;;;;;;;75.50;7.40;;;5.20;99.90;;;;;;5081911;28;20244;-83
2023/01/31 02:37:42;;;;;;;73.95;6.13;;;5.10;99.90;;;;;;5063537;28;20266;-84
2023/01/31 02:40:08;;;;;;;75.93;6.57;;;5.20;99.90;;;;;;5063781;28;20271;-83
2023/01/31 02:42:53;;;;;;;77.25;6.05;;;5.10;99.90;;;;;;5081195;28;20187;-84
2023/01/31 02:45:47;;;;;;;72.07;6.50;;;5.10;99.90;;;;;;5062821;28;20205;-84
2023/01/31 02:48:24;;;;;;;75.90;6.40;;;5.00;99.90;;;;;;5081417;28;20184;-84
2023/01/31 02:51:13;;;;;;;75.85;6.38;;;5.00;99.90;;;;;;5081343;28;20593;-83
2023/01/31 02:53:47;;;;;;;76.63;6.80;;;5.00;99.90;;;;;;5081242;28;20187;-84
2023/01/31 02:56:27;;;;;;;77.60;6.93;;;5.10;99.90;;;;;;5081404;28;20154;-84
2023/01/31 02:59:18;;;;;;;72.60;5.28;;;5.10;99.90;;;;;;5063883;28;20198;-84
2023/01/31 03:01:49;;;;;;;79.75;6.13;;;5.10;99.90;;;;;;5081475;28;20179;-84
2023/01/31 03:04:15;;;;;;;87.50;7.00;;;5.00;99.90;;;;;;5082096;28;20152;-84
2023/01/31 03:06:53;;;;;;;83.40;7.90;;;4.90;99.90;;;;;;5081012;28;20163;-84
2023/01/31 03:09:35;;;;;;;74.95;6.78;;;4.80;99.90;;;;;;5062180;28;20242;-84
2023/01/31 03:12:22;;;;;;;81.63;7.47;;;4.70;99.90;;;;;;5081484;28;20180;-84
2023/01/31 03:15:03;;;;;;;77.10;6.68;;;4.60;99.90;;;;;;5062952;28;20241;-84
2023/01/31 03:17:55;;;;;;;81.18;5.97;;;4.50;99.90;;;;;;5063099;28;20163;-84
2023/01/31 03:20:39;;;;;;;81.18;6.13;;;4.50;99.90;;;;;;5077710;28;20172;-84
2023/01/31 03:23:28;;;;;;;71.30;6.13;;;4.40;99.90;;;;;;5080763;28;20137;-84
2023/01/31 03:25:56;;;;;;;72.20;5.68;;;4.20;99.90;;;;;;5081058;28;20168;-84
2023/01/31 03:28:30;;;;;;;77.45;6.70;;;4.10;99.90;;;;;;5062672;28;20168;-84
2023/01/31 03:31:13;;;;;;;76.65;6.80;;;4.00;99.90;;;;;;5062675;28;20187;-84
2023/01/31 03:33:42;;;;;;;78.47;6.82;;;3.90;99.90;;;;;;5080388;28;20199;-84
2023/01/31 03:36:32;;;;;;;83.57;6.32;;;3.80;99.90;;;;;;5080243;28;20160;-84
2023/01/31 03:39:23;;;;;;;79.70;6.45;;;3.70;99.90;;;;;;5063491;28;20199;-84
2023/01/31 03:42:22;;;;;;;77.88;6.20;;;3.70;99.90;;;;;;5080961;28;20180;-84
2023/01/31 03:45:10;;;;;;;80.53;8.20;;;3.70;99.90;;;;;;5080719;28;20646;-84
2023/01/31 03:47:39;;;;;;;72.50;6.53;;;3.70;99.90;;;;;;5081001;28;20159;-84
2023/01/31 03:50:14;;;;;;;75.82;7.18;;;3.60;99.90;;;;;;5080612;28;20176;-83
2023/01/31 03:52:49;;;;;;;79.78;7.30;;;3.60;99.90;;;;;;5062216;28;20159;-83
2023/01/31 03:55:21;;;;;;;73.93;7.50;;;3.50;99.90;;;;;;5062225;28;20191;-84
2023/01/31 03:57:51;;;;;;;71.30;6.25;;;3.40;99.90;;;;;;5062637;28;20160;-84
2023/01/31 04:00:20;;;;;;;75.32;7.30;;;3.40;99.90;;;;;;5080739;28;20160;-84
2023/01/31 04:02:49;;;;;;;68.97;6.30;;;3.30;99.90;;;;;;5062154;28;20168;-84
2023/01/31 04:05:23;;;;;;;77.57;6.50;;;3.30;99.90;;;;;;5080413;28;20158;-84
2023/01/31 04:07:49;;;;;;;70.03;6.00;;;3.30;99.90;;;;;;5079917;28;20564;-83
2023/01/31 04:10:18;;;;;;;77.10;7.40;;;3.30;99.90;;;;;;5080295;28;20225;-83
2023/01/31 04:12:44;;;;;;;68.95;6.85;;;3.30;99.90;;;;;;5062186;28;20409;-84
2023/01/31 04:15:11;;;;;;;76.95;6.55;;;3.20;99.90;;;;;;5080182;28;20550;-84
2023/01/31 04:17:37;;;;;;;75.28;7.22;;;3.30;99.90;;;;;;5061559;28;20178;-84
2023/01/31 04:20:05;;;;;;;76.32;7.13;;;3.20;99.90;;;;;;5061663;28;20159;-84
2023/01/31 04:22:31;;;;;;;71.53;8.35;;;3.20;99.90;;;;;;5079519;28;20160;-84
2023/01/31 04:24:57;;;;;;;79.47;8.68;;;3.20;99.90;;;;;;5061444;28;20183;-83
2023/01/31 04:27:25;;;;;;;72.17;6.53;;;3.20;99.90;;;;;;5079387;28;20175;-84
2023/01/31 04:29:52;;;;;;;76.90;7.75;;;3.20;99.90;;;;;;5080234;28;20182;-84
2023/01/31 04:32:17;;;;;;;72.10;6.97;;;3.20;99.90;;;;;;5079110;28;20291;-83
2023/01/31 04:34:46;;;;;;;73.87;8.47;;;3.20;99.90;;;;;;5060966;28;20274;-85
2023/01/31 04:37:12;;;;;;;77.00;7.20;;;3.10;99.90;;;;;;5061268;28;20170;-84
2023/01/31 04:39:38;;;;;;;73.55;7.05;;;3.10;99.90;;;;;;5061273;28;20534;-84
2023/01/31 04:42:03;;;;;;;74.73;7.20;;;3.00;99.90;;;;;;5061734;28;20214;-84
2023/01/31 04:44:29;;;;;;;76.80;6.63;;;2.90;99.90;;;;;;5061529;28;20175;-84
2023/01/31 04:46:55;;;;;;;69.97;7.63;;;3.00;99.90;;;;;;5078855;28;20175;-85
2023/01/31 04:49:20;;;;;;;70.97;8.80;;;3.00;99.90;;;;;;5079008;28;20251;-84
2023/01/31 04:51:46;;;;;;;76.30;8.53;;;2.90;99.90;;;;;;5061149;28;20218;-84
2023/01/31 04:54:12;;;;;;;85.73;8.60;;;2.80;99.90;;;;;;5060449;28;20677;-84
2023/01/31 04:56:38;;;;;;;71.75;8.75;;;2.90;99.90;;;;;;5078784;28;20156;-84
2023/01/31 04:59:04;;;;;;;72.50;9.33;;;2.90;99.90;;;;;;5078664;28;20168;-84
2023/01/31 05:01:29;;;;;;;73.07;8.93;;;2.90;99.90;;;;;;5060373;28;20733;-84
2023/01/31 05:03:55;;;;;;;74.87;9.80;;;2.90;99.90;;;;;;5060673;28;20232;-84
2023/01/31 05:06:21;;;;;;;81.20;13.70;;;2.90;99.90;;;;;;5078736;28;20233;-84
2023/01/31 05:08:47;;;;;;;81.25;13.10;;;2.90;99.90;;;;;;5078326;28;20168;-84
2023/01/31 05:11:13;;;;;;;72.37;10.87;;;2.80;99.90;;;;;;5060436;28;20233;-84
2023/01/31 05:13:39;;;;;;;77.83;17.83;;;2.80;99.90;;;;;;5060299;28;20449;-84
2023/01/31 05:16:10;;;;;;;78.53;19.55;;;2.70;99.90;;;;;;5078329;28;20403;-84
2023/01/31 05:18:37;;;;;;;95.53;18.63;;;2.70;99.90;;;;;;5059821;28;20221;-84
2023/01/31 05:21:04;;;;;;;76.47;19.73;;;2.70;99.90;;;;;;5060130;28;20190;-84
2023/01/31 05:23:30;;;;;;;80.97;22.40;;;2.70;99.90;;;;;;5078101;28;20690;-84
2023/01/31 05:25:57;;;;;;;79.57;23.95;;;2.80;99.90;;;;;;5078019;28;20191;-84
2023/01/31 05:28:24;;;;;;;83.93;26.83;;;2.90;99.90;;;;;;5077090;28;20213;-84
2023/01/31 05:30:52;;;;;;;84.22;26.58;;;2.90;99.90;;;;;;5076417;28;20283;-84
2023/01/31 05:33:19;;;;;;;85.18;29.90;;;3.00;99.90;;;;;;5151061;22;20227;-83
2023/01/31 05:35:46;;;;;;;83.15;24.35;;;3.00;99.90;;;;;;5071119;28;20160;-84
2023/01/31 05:38:14;;;;;;;88.68;24.08;;;3.10;99.90;;;;;;5089331;28;20155;-84
2023/01/31 05:40:41;;;;;;;83.88;23.48;;;3.10;99.90;;;;;;5088583;28;20708;-84
2023/01/31 05:43:06;;;;;;;85.03;19.40;;;3.20;99.90;;;;;;5070747;28;20160;-84
2023/01/31 05:45:32;;;;;;;79.03;17.40;;;3.30;99.90;;;;;;5070546;28;20199;-84
2023/01/31 05:48:03;;;;;;;77.47;15.53;;;3.40;99.90;;;;;;5088348;28;20176;-84
2023/01/31 05:50:29;;;;;;;84.30;19.92;;;3.40;99.90;;;;;;5088225;28;20658;-84
2023/01/31 05:53:01;;;;;;;79.25;14.98;;;3.50;99.90;;;;;;5070057;28;20168;-84
2023/01/31 05:55:27;;;;;;;77.30;14.30;;;3.50;99.90;;;;;;5071392;28;20183;-84
2023/01/31 05:57:56;;;;;;;79.90;15.35;;;3.50;99.90;;;;;;5088900;28;20172;-84
2023/01/31 06:00:23;;;;;;;76.75;12.25;;;3.60;99.90;;;;;;5087893;28;20171;-84
2023/01/31 06:02:49;;;;;;;90.55;15.25;;;3.60;99.90;;;;;;5088586;28;20155;-84
2023/01/31 06:05:15;;;;;;;77.43;16.13;;;3.70;99.90;;;;;;5070987;28;20239;-84
2023/01/31 06:07:41;;;;;;;88.43;16.02;;;3.70;99.90;;;;;;5088965;28;20194;-84
2023/01/31 06:10:10;;;;;;;86.18;19.75;;;3.70;99.90;;;;;;5070781;28;20168;-84
2023/01/31 06:12:35;;;;;;;75.60;18.42;;;3.70;99.90;;;;;;5071233;28;20179;-84
2023/01/31 06:15:07;;;;;;;76.37;16.80;;;3.70;99.90;;;;;;5088583;28;20188;-84
2023/01/31 06:17:34;;;;;;;89.00;19.95;;;3.70;99.90;;;;;;5070256;28;20422;-84
2023/01/31 06:19:59;;;;;;;78.40;20.63;;;3.70;99.90;;;;;;5070901;28;20168;-84
2023/01/31 06:22:28;;;;;;;80.13;21.90;;;3.60;99.90;;;;;;5070518;28;20194;-84
2023/01/31 06:24:54;;;;;;;75.65;18.13;;;3.70;99.90;;;;;;5071100;28;20413;-84
2023/01/31 06:27:22;;;;;;;78.63;19.90;;;3.70;99.90;;;;;;5089275;28;20223;-84
2023/01/31 06:29:51;;;;;;;78.78;16.13;;;3.70;99.90;;;;;;5070376;28;20199;-84
2023/01/31 06:32:26;;;;;;;83.05;16.25;;;3.80;99.90;;;;;;5069569;28;20231;-84
2023/01/31 06:34:53;;;;;;;78.45;13.95;;;3.80;99.90;;;;;;5071640;28;20274;-84
2023/01/31 06:37:18;;;;;;;81.43;14.60;;;3.90;99.90;;;;;;5087959;28;20174;-84
2023/01/31 06:39:44;;;;;;;73.03;16.00;;;3.90;99.90;;;;;;5087325;28;20192;-84
2023/01/31 06:42:10;;;;;;;74.33;15.80;;;4.00;99.90;;;;;;5087842;28;20274;-84
2023/01/31 06:44:36;;;;;;;84.90;20.13;;;4.10;99.90;;;;;;5072241;28;20168;-84
2023/01/31 06:47:02;;;;;;;77.88;16.67;;;4.20;99.90;;;;;;5091363;28;20175;-84
2023/01/31 06:49:28;;;;;;;79.80;17.50;;;4.20;99.90;;;;;;5074031;28;20217;-83
2023/01/31 06:51:54;;;;;;;82.53;18.57;;;4.20;99.90;;;;;;5092316;28;20432;-84
2023/01/31 06:54:19;;;;;;;74.37;17.53;;;4.20;99.90;;;;;;5091455;28;20188;-84
2023/01/31 06:56:46;;;;;;;85.87;21.13;;;4.10;99.90;;;;;;5073983;28;20191;-84
2023/01/31 06:59:12;;;;;;;80.15;16.05;;;4.20;99.90;;;;;;5073396;28;20412;-83
2023/01/31 07:01:37;;;;;;;75.70;16.63;;;4.10;99.90;;;;;;5073161;28;20251;-83
2023/01/31 07:04:03;;;;;;;77.67;16.97;;;4.10;99.90;;;;;;5072080;28;20414;-83
2023/01/31 07:06:29;;;;;;;83.03;19.03;;;4.10;99.90;;;;;;5072222;28;20172;-83
2023/01/31 07:08:55;;;;;;;81.90;18.10;;;4.10;99.90;;;;;;5073173;28;20175;-83
2023/01/31 07:11:21;;;;;;;75.10;15.77;;;4.20;99.90;;;;;;5073318;28;20475;-83
2023/01/31 07:13:47;;;;;;;80.47;16.10;;;4.30;99.90;;;;;;5090610;28;20948;-83
2023/01/31 07:16:15;;;;;;;78.77;12.13;;;4.30;99.90;;;;;;5072002;28;20411;-84
2023/01/31 07:18:42;;;;;;;75.45;13.40;;;4.30;99.90;;;;;;5072429;28;20976;-83
2023/01/31 07:21:09;;;;;;;78.47;14.30;;;4.30;99.90;;;;;;5072699;28;20191;-84
2023/01/31 07:23:35;;;;;;;79.63;12.02;;;4.40;99.90;;;;;;5072810;28;20692;-84
2023/01/31 07:26:07;;;;;;;79.90;11.93;;;4.40;99.90;;;;;;5072181;28;20167;-83
2023/01/31 07:28:42;;;;;;;86.28;14.55;;;4.40;1.00;;;;;;5089703;28;20170;-83
2023/01/31 07:31:16;;;;;;;82.53;15.20;;;4.40;99.90;;;;;;5072253;28;20198;-83
2023/01/31 07:33:42;;;;;;;75.45;19.75;;;4.50;99.90;;;;;;5072057;28;20214;-84
2023/01/31 07:36:13;;;;;;;87.97;15.52;;;4.60;1.00;;;;;;5072546;28;20171;-84
2023/01/31 07:38:45;;;;;;;83.25;13.80;;;4.70;99.90;;;;;;5090164;28;20163;-84
2023/01/31 07:41:16;;;;;;;75.97;11.43;;;4.80;99.90;;;;;;5072143;28;20180;-84
2023/01/31 07:43:42;;;;;;;70.10;9.25;;;4.90;1.00;;;;;;5090317;28;20144;-85
2023/01/31 07:46:11;;;;;;;77.73;9.83;;;4.90;1.00;;;;;;5071690;28;20201;-84
2023/01/31 07:48:55;;;;;;;75.18;8.30;;;5.00;1.00;;;;;;5090670;28;20193;-84
2023/01/31 07:51:24;;;;;;;77.88;7.45;;;5.00;1.00;;;;;;5071535;28;20196;-84
2023/01/31 07:53:50;;;;;;;71.10;7.35;;;5.10;1.00;;;;;;5089860;28;20195;-84
2023/01/31 07:56:20;;;;;;;76.43;7.27;;;5.10;1.00;;;;;;5071346;28;20650;-84
2023/01/31 07:58:48;;;;;;;73.30;6.72;;;5.10;1.00;;;;;;5071734;28;20527;-84
2023/01/31 08:04:03;;;;;;;80.25;9.18;;;5.20;99.90;;;;;;5089555;28;20216;-84
2023/01/31 08:06:48;;;;;;;70.03;5.47;;;5.20;99.90;;;;;;5089514;28;20175;-84
2023/01/31 08:09:23;;;;;;;79.50;7.55;;;5.20;99.90;;;;;;5071860;28;20213;-83
2023/01/31 08:11:50;;;;;;;74.72;6.90;;;5.30;99.90;;;;;;5070931;28;20183;-83
2023/01/31 08:14:19;;;;;;;73.47;5.97;;;5.30;99.90;;;;;;5089168;28;20191;-83
2023/01/31 08:16:45;;;;;;;78.70;6.18;;;5.30;99.90;;;;;;5089156;28;20160;-83
2023/01/31 08:19:17;;;;;;;71.70;5.80;;;5.40;99.90;;;;;;5088842;28;20198;-84
2023/01/31 08:21:45;;;;;;;71.25;5.88;;;5.40;99.90;;;;;;5071486;28;20433;-83
2023/01/31 08:24:11;;;;;;;77.38;6.50;;;5.50;99.90;;;;;;5071892;28;20164;-84
2023/01/31 08:26:36;;;;;;;85.33;8.70;;;5.50;99.90;;;;;;5088300;28;20535;-84
2023/01/31 08:29:03;;;;;;;74.53;5.82;;;5.60;99.90;;;;;;5088892;28;20175;-83
2023/01/31 08:31:28;;;;;;;71.67;5.60;;;5.60;99.90;;;;;;5088639;28;20582;-83
2023/01/31 08:33:56;;;;;;;74.23;5.83;;;5.60;99.90;;;;;;5088068;28;20450;-84
2023/01/31 08:36:32;;;;;;;78.15;7.15;;;5.60;99.90;;;;;;5070633;28;20415;-83
2023/01/31 08:39:04;;;;;;;76.38;6.68;;;5.70;99.90;;;;;;5071208;28;20248;-84
2023/01/31 08:41:38;;;;;;;80.25;5.55;;;5.70;99.90;;;;;;5070779;28;20183;-83
2023/01/31 08:44:13;;;;;;;78.15;6.00;;;5.90;99.90;;;;;;5088424;28;20156;-84
2023/01/31 08:46:41;;;;;;;71.35;5.82;;;5.90;99.90;;;;;;5087963;28;20178;-83
2023/01/31 08:49:10;;;;;;;71.10;5.47;;;6.00;99.90;;;;;;5087382;28;20160;-84
2023/01/31 08:51:39;;;;;;;69.22;4.82;;;6.00;99.90;;;;;;5086932;28;20187;-84
2023/01/31 08:54:09;;;;;;;75.28;5.57;;;6.10;99.90;;;;;;5087594;28;20180;-84
2023/01/31 08:56:43;;;;;;;68.82;5.15;;;6.20;99.90;;;;;;5070582;28;20163;-84
2023/01/31 08:59:11;;;;;;;71.07;5.43;;;6.20;99.90;;;;;;5070276;28;20158;-84
2023/01/31 09:01:47;;;;;;;;;;;;;;;;;;;;;
2023/01/31 09:04:14;;;;;;;70.05;6.05;;;6.20;99.90;;;;;;5088038;28;20191;-84
2023/01/31 09:06:40;;;;;;;72.60;6.65;;;6.20;99.90;;;;;;5068852;28;20168;-84
2023/01/31 09:09:06;;;;;;;73.75;6.10;;;6.30;99.90;;;;;;5087896;28;20163;-84
2023/01/31 09:11:34;;;;;;;81.37;6.53;;;6.30;99.90;;;;;;5170644;22;20670;-83
2023/01/31 09:16:41;;;;;;;76.63;6.68;;;6.30;1.00;;;;;;4764401;26;20232;-85
2023/01/31 09:19:07;;;;;;;72.30;6.57;;;6.30;1.00;;;;;;5027669;28;20162;-84
2023/01/31 09:21:36;;;;;;;74.30;6.97;;;6.20;1.00;;;;;;5009476;28;20186;-84
2023/01/31 09:24:02;;;;;;;69.07;5.18;;;6.20;1.00;;;;;;5010448;28;20177;-84
2023/01/31 09:26:28;;;;;;;77.63;6.15;;;6.20;68.40;;;;;;5090525;22;20226;-83
2023/01/31 09:28:54;;;;;;;73.90;6.37;;;6.20;1.00;;;;;;5017959;28;20528;-83
2023/01/31 09:31:20;;;;;;;80.70;7.55;;;6.20;99.90;;;;;;5017347;28;20955;-83
2023/01/31 09:33:46;;;;;;;72.55;6.03;;;6.30;99.90;;;;;;5017658;28;20193;-83
2023/01/31 09:36:17;;;;;;;70.97;5.70;;;6.30;99.90;;;;;;5018746;28;20170;-83
2023/01/31 09:38:44;;;;;;;73.28;6.35;;;6.30;1.00;;;;;;5000177;28;20436;-83
2023/01/31 09:41:31;;;;;;;72.50;6.32;;;6.40;1.00;;;;;;5017320;28;20184;-83
2023/01/31 09:44:05;;;;;;;71.90;6.85;;;6.40;1.00;;;;;;5017599;28;20301;-83
2023/01/31 09:46:46;;;;;;;74.22;5.90;;;6.40;1.00;;;;;;5000475;28;20160;-83
2023/01/31 09:49:22;;;;;;;77.35;6.45;;;6.40;99.90;;;;;;5017775;28;20208;-83
2023/01/31 09:51:54;;;;;;;72.38;6.40;;;6.40;1.00;;;;;;5000162;28;20185;-83
2023/01/31 09:54:33;;;;;;;74.63;6.40;;;6.50;1.00;;;;;;5017706;28;20178;-83
2023/01/31 09:57:21;;;;;;;75.55;8.07;;;6.60;99.90;;;;;;4999698;28;20522;-83
2023/01/31 10:00:17;;;;;;;68.32;5.63;;;6.60;1.00;;;;;;5017906;28;20150;-83
2023/01/31 10:02:59;;;;;;;80.95;7.78;;;6.60;1.00;;;;;;5000273;28;20159;-83
2023/01/31 10:06:07;;;;;;;78.50;6.20;;;6.60;1.00;;;;;;5017707;28;20185;-83
2023/01/31 10:08:42;;;;;;;75.88;6.63;;;6.60;68.40;;;;;;5018282;28;20487;-83
2023/01/31 10:11:16;;;;;;;75.38;7.30;;;6.60;34.20;;;;;;4999824;28;20257;-83
2023/01/31 10:13:48;;;;;;;76.57;15.60;;;6.70;99.90;;;;;;5000573;28;20231;-83
2023/01/31 10:16:40;;;;;;;75.63;8.82;;;6.60;99.90;;;;;;5018067;28;20638;-83
2023/01/31 10:19:15;;;;;;;73.88;7.90;;;6.70;99.90;;;;;;4991468;28;20660;-83
2023/01/31 10:21:46;;;;;;;78.88;11.38;;;6.60;99.90;;;;;;5021848;28;20208;-84
2023/01/31 10:24:23;;;;;;;75.72;8.05;;;6.60;99.90;;;;;;5021528;28;20154;-83
2023/01/31 10:26:53;;;;;;;74.95;6.75;;;6.60;99.90;;;;;;5021406;28;20212;-83
2023/01/31 10:29:35;;;;;;;71.68;7.15;;;6.70;99.90;;;;;;5022321;28;20151;-83
2023/01/31 10:32:05;;;;;;;71.22;8.05;;;6.70;99.90;;;;;;5003799;28;20194;-84
2023/01/31 10:34:44;;;;;;;76.43;10.70;;;6.80;99.90;;;;;;5021733;28;20216;-83
2023/01/31 10:37:12;;;;;;;69.65;6.45;;;6.90;99.90;;;;;;5021949;28;20162;-83
2023/01/31 10:39:45;;;;;;;72.13;7.47;;;7.00;99.90;;;;;;5003639;28;20169;-83
2023/01/31 10:42:33;;;;;;;71.50;7.05;;;7.10;99.90;;;;;;5003330;28;20224;-83
2023/01/31 10:45:08;;;;;;;74.00;6.53;;;7.10;99.90;;;;;;5003780;28;20269;-84
2023/01/31 10:47:38;;;;;;;69.05;6.22;;;7.20;99.90;;;;;;5003629;28;20173;-83
2023/01/31 10:50:26;;;;;;;74.72;5.95;;;7.20;99.90;;;;;;5021507;28;20344;-83
2023/01/31 10:53:04;;;;;;;75.35;6.55;;;7.20;99.90;;;;;;5021362;28;20475;-83
2023/01/31 10:55:29;;;;;;;72.97;7.43;;;7.20;99.90;;;;;;5020831;28;20182;-83
2023/01/31 10:57:56;;;;;;;79.10;6.80;;;7.20;99.90;;;;;;5021291;28;20216;-83
2023/01/31 11:00:27;;;;;;;82.13;6.00;;;7.20;99.90;;;;;;5021159;28;20564;-83
2023/01/31 11:02:53;;;;;;;70.15;7.63;;;7.20;99.90;;;;;;5021376;28;20565;-84
2023/01/31 11:05:22;;;;;;;74.17;6.17;;;7.20;99.90;;;;;;5003489;28;20174;-83
2023/01/31 11:07:48;;;;;;;75.80;6.70;;;7.40;99.90;;;;;;5003051;28;20247;-83
2023/01/31 11:10:28;;;;;;;78.15;7.63;;;7.50;99.90;;;;;;5020577;28;20701;-83
2023/01/31 11:13:08;;;;;;;79.78;7.05;;;7.50;99.90;;;;;;5003341;28;20177;-83
2023/01/31 11:15:39;;;;;;;76.13;6.15;;;7.50;99.90;;;;;;5021239;28;20221;-83
2023/01/31 11:18:04;;;;;;;73.38;5.72;;;7.50;99.90;;;;;;5020612;28;20610;-83
2023/01/31 11:20:36;;;;;;;80.07;6.37;;;7.60;99.90;;;;;;5003330;28;20193;-83
2023/01/31 11:23:03;;;;;;;72.45;4.43;;;7.60;99.90;;;;;;5021065;28;20155;-83
2023/01/31 11:25:32;;;;;;;74.70;6.00;;;7.80;99.90;;;;;;5020855;28;20178;-83
2023/01/31 11:28:02;;;;;;;74.18;5.20;;;7.70;99.90;;;;;;5002450;28;20592;-83
2023/01/31 11:30:34;;;;;;;73.82;5.80;;;7.80;99.90;;;;;;5019175;28;20196;-83
2023/01/31 11:33:00;;;;;;;76.00;5.65;;;7.80;99.90;;;;;;5020562;28;20162;-83
2023/01/31 11:35:50;;;;;;;71.45;5.70;;;7.80;99.90;;;;;;5020791;28;20269;-83
2023/01/31 11:38:21;;;;;;;69.65;7.20;;;7.80;99.90;;;;;;5020839;28;20664;-83
2023/01/31 11:40:47;;;;;;;73.13;4.90;;;7.90;99.90;;;;;;5020238;28;20228;-83
2023/01/31 11:43:13;;;;;;;69.32;5.15;;;7.90;99.90;;;;;;5019812;28;20162;-83
2023/01/31 11:45:45;;;;;;;73.90;6.27;;;8.00;99.90;;;;;;5020028;28;20177;-83
2023/01/31 11:48:23;;;;;;;67.95;4.60;;;8.00;99.90;;;;;;5020580;28;20480;-83
2023/01/31 11:50:56;;;;;;;69.93;4.82;;;8.00;99.90;;;;;;5001996;28;20192;-83
2023/01/31 11:53:42;;;;;;;70.18;5.13;;;8.10;99.80;;;;;;5019422;28;20150;-83
2023/01/31 11:56:20;;;;;;;82.25;5.50;;;8.20;99.00;;;;;;5002461;28;20154;-83
2023/01/31 11:58:49;;;;;;;68.20;5.18;;;8.20;96.80;;;;;;5020004;28;20675;-83
2023/01/31 12:01:19;;;;;;;67.75;5.28;;;8.20;98.30;;;;;;5019954;28;20204;-83
2023/01/31 12:04:02;;;;;;;67.60;5.07;;;8.20;96.80;;;;;;5020094;28;20653;-83
2023/01/31 12:06:37;;;;;;;68.53;4.95;;;8.20;96.80;;;;;;5019184;28;20155;-83
2023/01/31 12:09:19;;;;;;;70.72;4.97;;;8.20;98.00;;;;;;5019289;28;20157;-83
2023/01/31 12:11:53;;;;;;;71.90;5.10;;;8.20;98.30;;;;;;5019552;28;20277;-83
2023/01/31 12:14:19;;;;;;;78.85;5.70;;;8.10;98.90;;;;;;5019456;28;20280;-83
2023/01/31 12:16:47;;;;;;;67.40;5.87;;;8.10;99.90;;;;;;5020211;28;20200;-83
2023/01/31 12:19:13;;;;;;;74.32;5.50;;;8.00;99.90;;;;;;5019523;28;20488;-83
2023/01/31 12:22:19;;;;;;;78.57;5.53;;;8.00;99.90;;;;;;5019601;28;20233;-82
2023/01/31 12:24:50;;;;;;;71.70;4.43;;;8.00;99.90;;;;;;5008628;28;20216;-83
2023/01/31 12:27:55;;;;;;;68.88;5.25;;;8.00;99.90;;;;;;5001994;28;20169;-83
2023/01/31 12:30:45;;;;;;;72.55;5.40;;;8.10;99.90;;;;;;5000933;28;20576;-83
2023/01/31 12:33:17;;;;;;;70.28;5.47;;;8.20;99.90;;;;;;5001395;28;20162;-83
2023/01/31 12:36:04;;;;;;;76.40;6.55;;;8.20;99.90;;;;;;5000866;28;20523;-83
2023/01/31 12:38:45;;;;;;;71.80;5.47;;;8.20;99.90;;;;;;5018678;28;20165;-83
2023/01/31 12:41:36;;;;;;;66.30;5.07;;;8.20;99.90;;;;;;5018090;28;20184;-83
2023/01/31 12:44:32;;;;;;;67.95;5.55;;;8.10;99.90;;;;;;5018724;28;20166;-83
2023/01/31 12:47:06;;;;;;;72.55;6.75;;;8.10;99.90;;;;;;5000814;28;20557;-83
2023/01/31 12:49:47;;;;;;;70.00;6.90;;;8.10;99.90;;;;;;5001536;28;20552;-83
2023/01/31 12:52:23;;;;;;;70.13;5.30;;;8.10;99.90;;;;;;5018437;28;20354;-84
2023/01/31 12:55:41;;;;;;;68.35;6.22;;;8.00;99.90;;;;;;5000977;28;20185;-83
2023/01/31 12:58:32;;;;;;;67.55;7.18;;;8.00;99.90;;;;;;4958127;28;20653;-83
2023/01/31 13:01:23;;;;;;;74.72;6.45;;;8.00;99.90;;;;;;4981780;28;20240;-83
2023/01/31 13:03:48;;;;;;;67.05;6.50;;;8.00;99.90;;;;;;5019068;28;20212;-83
2023/01/31 13:06:21;;;;;;;67.27;6.17;;;8.00;99.90;;;;;;5019460;28;20166;-83
2023/01/31 13:09:06;;;;;;;67.53;5.47;;;8.00;99.90;;;;;;5018546;28;20506;-83
2023/01/31 13:11:41;;;;;;;67.65;6.63;;;8.00;99.90;;;;;;5019296;28;20186;-83
2023/01/31 13:14:16;;;;;;;69.53;6.13;;;8.00;99.90;;;;;;5018878;28;20224;-83
2023/01/31 13:16:45;;;;;;;74.55;7.10;;;7.90;99.90;;;;;;5019004;28;20177;-83